Weather

Webcam

Metar / TAF

Zurich

  • LSZH 220250Z 01003KT 9999 BKN016 13/12 Q1024 NOSIG

  • TAF LSZH 220225Z 2203/2309 03004KT 9999 BKN015 TX24/2215Z TN12/2204Z TN12/2303Z BECMG 2206/2209 04008KT BECMG 2217/2220 VRB03KT TEMPO 2215/2303 CAVOK PROB40 2303/2309 BKN010

Dübendorf

  • LSMD 220320Z AUTO 00000KT 9999NDV NCD 12/11 Q1024 RMK

  • TAF LSMD 211625Z 2117/2223 06010KT 9999 SCT040 BECMG 2117/2120 VRB03KT BECMG 2123/2202 BKN020 PROB40 2202/2207 BKN012 BECMG 2207/2209 04005KT SCT035

St. Gallen

  • LSZR 220320Z AUTO 16002KT 9999 BKN011 13/13 Q1024

  • TAF AMD LSZR 222054Z 2220/2224 CNL

Bern

  • LSZB 220320Z AUTO 00000KT 9999 BKN032 11/11 Q1024

  • TAF AMD TAF AMD LSZB 222054Z 2220/2224 CNL

Locarno

  • LSZL 220320Z AUTO VRB01KT 9999NDV -SHRA FEW063 BKN120 18/18 Q1023 RMK

  • TAF AMD TAF AMD LSZL 150713Z 1509/1521 VRB03KT 9999 SCT050

Samedan

  • LSZS 220320Z AUTO 22007KT 190V260 9999 NCD 10/08 Q1029

  • TAF AMD LSZS 222054Z 2220/2224 CNL

Geneve

  • LSGG 220320Z AUTO VRB03KT 9999 OVC030 16/13 Q1023 NOSIG

  • TAF LSGG 220225Z 2203/2309 VRB03KT 9999 BKN030 TX26/2215Z TN12/2204Z TN14/2304Z PROB30 TEMPO 2203/2208 BKN014 BECMG 2207/2210 05008KT FEW060 PROB40 TEMPO 2223/2308 BKN020

Weather-Charts



Wind at FL50: 06:00z, 09:00z, 12:00z, 15:00z and 18:00z